Time;durP1;ratioP1;P1;durP2;ratioP2;P2;SDS_P1;SDS_P2;PMS_P1;PMS_P2;Temp;Humidity;BMP_temperature;BMP_pressure;BME280_temperature;BME280_humidity;BME280_pressure;Samples;Min_cycle;Max_cycle;Signal;HPM_P1;HPM_P2
2023/12/06 00:01:55;;;;;;;37.08;15.63;;;-8.90;65.70;;;;;;6067744;23;20029;-78
2023/12/06 00:04:23;;;;;;;41.95;19.15;;;-9.00;65.20;;;;;;6041516;23;20023;-78
2023/12/06 00:06:50;;;;;;;39.22;17.65;;;-9.10;64.70;;;;;;6066812;23;20026;-78
2023/12/06 00:09:18;;;;;;;35.35;16.50;;;-9.00;65.20;;;;;;6066830;23;20022;-78
2023/12/06 00:11:47;;;;;;;40.15;14.98;;;-9.00;64.90;;;;;;6089340;23;20027;-75
2023/12/06 00:14:15;;;;;;;37.22;14.35;;;-9.10;64.60;;;;;;6064678;23;20029;-75
2023/12/06 00:16:43;;;;;;;32.42;14.13;;;-9.20;64.30;;;;;;6066785;23;20436;-74
2023/12/06 00:19:10;;;;;;;32.72;14.40;;;-9.20;64.20;;;;;;6066651;23;20027;-76
2023/12/06 00:21:38;;;;;;;39.67;15.05;;;-9.10;64.30;;;;;;6065990;23;20030;-75
2023/12/06 00:24:07;;;;;;;47.67;13.95;;;-9.10;63.70;;;;;;6066131;23;20033;-75
2023/12/06 00:26:35;;;;;;;34.50;12.95;;;-9.20;63.60;;;;;;6065484;23;20097;-75
2023/12/06 00:29:04;;;;;;;42.92;12.90;;;-9.20;63.50;;;;;;6063845;23;20057;-76
2023/12/06 00:31:32;;;;;;;43.90;15.82;;;-9.30;63.40;;;;;;6064417;23;20086;-76
2023/12/06 00:34:00;;;;;;;35.55;12.93;;;-9.30;63.30;;;;;;6040716;23;20026;-75
2023/12/06 00:36:27;;;;;;;31.27;13.57;;;-9.30;63.40;;;;;;6067018;23;20444;-76
2023/12/06 00:38:55;;;;;;;37.70;12.25;;;-9.20;63.40;;;;;;6066649;23;20027;-76
2023/12/06 00:41:24;;;;;;;27.77;9.73;;;-9.30;63.20;;;;;;6063657;23;20031;-76
2023/12/06 00:43:53;;;;;;;36.83;12.20;;;-9.40;62.60;;;;;;5989331;23;20034;-75
2023/12/06 00:46:24;;;;;;;34.38;11.07;;;-9.40;62.80;;;;;;5989273;23;20027;-76
2023/12/06 00:48:52;;;;;;;36.17;11.73;;;-9.50;62.70;;;;;;6035273;23;20031;-76
2023/12/06 00:51:20;;;;;;;28.33;11.23;;;-9.60;62.80;;;;;;6037329;23;20023;-76
2023/12/06 00:53:48;;;;;;;27.38;11.73;;;-9.60;62.60;;;;;;6035011;23;20045;-76
2023/12/06 00:56:16;;;;;;;38.10;10.65;;;-9.80;62.50;;;;;;5988715;23;20113;-76
2023/12/06 00:58:45;;;;;;;29.67;11.43;;;-9.80;63.10;;;;;;6037374;23;20050;-76
2023/12/06 01:01:14;;;;;;;31.88;10.18;;;-9.90;63.20;;;;;;6011561;23;20102;-75
2023/12/06 01:03:43;;;;;;;28.58;10.45;;;-9.90;63.30;;;;;;6012453;23;20027;-77
2023/12/06 01:06:10;;;;;;;26.80;10.23;;;-9.90;62.90;;;;;;6036827;23;20524;-76
2023/12/06 01:08:38;;;;;;;22.95;8.55;;;-9.90;63.00;;;;;;6036149;23;20027;-75
2023/12/06 01:11:08;;;;;;;20.52;8.65;;;-10.00;62.90;;;;;;6034438;23;20455;-75
2023/12/06 01:13:35;;;;;;;17.27;7.97;;;-10.10;63.00;;;;;;6033230;23;20465;-75
2023/12/06 01:16:03;;;;;;;21.67;9.57;;;-10.10;63.20;;;;;;6034347;23;20027;-77
2023/12/06 01:18:31;;;;;;;21.45;8.50;;;-10.10;63.00;;;;;;6035617;23;20030;-75
2023/12/06 01:20:59;;;;;;;19.67;8.07;;;-10.30;62.90;;;;;;6007805;23;20027;-77
2023/12/06 01:23:27;;;;;;;28.30;9.00;;;-10.30;63.30;;;;;;6034494;23;20106;-76
2023/12/06 01:25:55;;;;;;;24.10;8.88;;;-10.30;63.10;;;;;;6034457;23;20087;-76
2023/12/06 01:28:22;;;;;;;24.25;10.07;;;-10.30;63.00;;;;;;6034873;23;20033;-75
2023/12/06 01:30:50;;;;;;;24.60;10.40;;;-10.20;63.10;;;;;;6009112;23;20055;-75
2023/12/06 01:33:18;;;;;;;17.80;8.45;;;-10.20;62.90;;;;;;6008746;23;20027;-75
2023/12/06 01:35:45;;;;;;;21.67;7.65;;;-10.20;62.60;;;;;;6007839;23;20046;-74
2023/12/06 01:38:14;;;;;;;21.63;9.43;;;-10.40;62.30;;;;;;6035142;23;20032;-76
2023/12/06 01:40:43;;;;;;;21.23;8.10;;;-10.40;62.50;;;;;;6036720;23;20027;-75
2023/12/06 01:43:11;;;;;;;22.52;8.43;;;-10.40;62.30;;;;;;6046022;23;20037;-76
2023/12/06 01:45:38;;;;;;;24.30;8.80;;;-10.50;62.30;;;;;;6087151;23;20046;-75
2023/12/06 01:48:07;;;;;;;17.02;7.25;;;;;;;;;;6087316;23;20385;-74
2023/12/06 01:50:36;;;;;;;23.30;8.75;;;-10.60;61.60;;;;;;6065002;23;20106;-75
2023/12/06 01:53:04;;;;;;;22.70;7.97;;;-10.60;62.50;;;;;;6066954;23;20125;-74
2023/12/06 01:55:33;;;;;;;22.52;11.38;;;-10.60;62.40;;;;;;6065957;23;20420;-76
2023/12/06 01:58:02;;;;;;;18.63;8.90;;;-10.70;62.60;;;;;;6067640;23;20018;-77
2023/12/06 02:00:31;;;;;;;25.30;9.55;;;-10.60;62.70;;;;;;6042261;23;20528;-78
2023/12/06 02:03:00;;;;;;;24.65;9.60;;;-10.60;62.40;;;;;;6065378;23;20053;-78
2023/12/06 02:05:27;;;;;;;21.33;7.93;;;-10.60;62.30;;;;;;6041030;23;20029;-77
2023/12/06 02:07:55;;;;;;;28.98;8.55;;;-10.50;62.30;;;;;;6065913;23;20050;-79
2023/12/06 02:10:23;;;;;;;20.48;8.90;;;-10.60;62.70;;;;;;6067721;23;20029;-79
2023/12/06 02:12:52;;;;;;;22.80;8.00;;;-10.50;61.80;;;;;;6064644;23;20019;-78
2023/12/06 02:15:21;;;;;;;19.92;9.27;;;-10.60;61.80;;;;;;6068366;23;20337;-78
2023/12/06 02:17:50;;;;;;;20.90;8.65;;;-10.60;62.20;;;;;;6042464;23;20027;-78
2023/12/06 02:20:18;;;;;;;28.48;7.97;;;-10.50;61.90;;;;;;6040099;23;20019;-77
2023/12/06 02:22:57;;;;;;;47.25;8.75;;;-10.50;62.00;;;;;;6065223;23;20113;-77
2023/12/06 02:25:29;;;;;;;17.63;8.45;;;-10.30;62.00;;;;;;6065816;23;20085;-78
2023/12/06 02:27:57;;;;;;;19.35;7.25;;;-10.30;61.60;;;;;;6041451;23;20353;-77
2023/12/06 02:30:25;;;;;;;23.70;9.35;;;-10.30;61.30;;;;;;6067076;23;20026;-78
2023/12/06 02:32:53;;;;;;;29.65;8.50;;;-10.30;61.10;;;;;;6066031;23;20034;-76
2023/12/06 02:35:27;;;;;;;24.55;8.77;;;-10.40;61.10;;;;;;6067735;23;20019;-78
2023/12/06 02:37:57;;;;;;;18.30;8.32;;;-10.40;61.20;;;;;;6067951;23;20030;-79
2023/12/06 02:40:29;;;;;;;18.48;7.88;;;-10.30;61.50;;;;;;6067249;23;20026;-79
2023/12/06 02:42:57;;;;;;;27.80;9.77;;;-10.30;61.20;;;;;;6065834;23;20027;-78
2023/12/06 02:45:24;;;;;;;28.58;9.93;;;-10.30;61.30;;;;;;6066177;23;20057;-77
2023/12/06 02:47:52;;;;;;;23.05;9.32;;;-10.30;61.50;;;;;;6065866;23;20046;-78
2023/12/06 02:50:20;;;;;;;25.92;8.88;;;-10.30;61.70;;;;;;6065371;23;20022;-78
2023/12/06 02:52:48;;;;;;;22.58;7.85;;;-10.20;61.50;;;;;;6064846;23;20026;-77
2023/12/06 02:55:16;;;;;;;28.45;10.15;;;-10.10;61.60;;;;;;6066836;23;20479;-78
2023/12/06 02:57:45;;;;;;;22.98;8.98;;;-10.00;61.40;;;;;;6064775;23;20058;-77
2023/12/06 03:00:13;;;;;;;25.75;8.95;;;-10.00;60.70;;;;;;6067236;23;20026;-78
2023/12/06 03:02:41;;;;;;;26.90;11.70;;;-10.10;60.40;;;;;;6066442;23;20460;-77
2023/12/06 03:05:09;;;;;;;28.13;8.73;;;-10.20;60.40;;;;;;6088422;23;20383;-78
2023/12/06 03:07:37;;;;;;;21.17;8.60;;;-10.20;60.50;;;;;;6089072;23;20023;-77
2023/12/06 03:10:06;;;;;;;21.35;8.05;;;-10.10;60.80;;;;;;6089224;23;20027;-77
2023/12/06 03:12:34;;;;;;;24.13;7.75;;;-10.10;60.80;;;;;;6067168;23;20030;-76
2023/12/06 03:15:04;;;;;;;17.45;7.13;;;-10.20;60.60;;;;;;6065115;23;20446;-77
2023/12/06 03:17:34;;;;;;;14.88;6.97;;;-10.20;60.70;;;;;;6065232;23;20050;-76
2023/12/06 03:20:02;;;;;;;19.05;6.53;;;-10.20;60.90;;;;;;6066256;23;20126;-74
2023/12/06 03:22:33;;;;;;;18.73;8.60;;;-10.20;61.10;;;;;;6065153;23;20053;-75
2023/12/06 03:25:00;;;;;;;17.95;7.35;;;-10.20;61.10;;;;;;6040525;23;20015;-75
2023/12/06 03:27:28;;;;;;;20.42;7.72;;;-10.20;61.10;;;;;;6065062;23;20062;-76
2023/12/06 03:29:56;;;;;;;26.10;7.88;;;-10.10;61.20;;;;;;6041605;23;20033;-76
2023/12/06 03:32:25;;;;;;;19.50;6.20;;;;;;;;;;6065412;23;20452;-76
2023/12/06 03:34:55;;;;;;;19.35;8.40;;;-10.10;60.40;;;;;;6064599;23;20026;-76
2023/12/06 03:37:23;;;;;;;24.27;8.07;;;-10.00;61.20;;;;;;6067244;23;20027;-75
2023/12/06 03:39:51;;;;;;;15.38;6.28;;;-10.00;61.10;;;;;;6065885;23;20392;-75
2023/12/06 03:42:18;;;;;;;24.33;6.60;;;-10.00;60.70;;;;;;6064112;23;20057;-74
2023/12/06 03:44:52;;;;;;;26.42;7.63;;;-10.10;60.30;;;;;;6066469;23;20049;-76
2023/12/06 03:47:20;;;;;;;25.70;8.88;;;-10.20;60.50;;;;;;6067374;23;20046;-76
2023/12/06 03:49:49;;;;;;;27.73;8.85;;;-10.20;60.80;;;;;;6063052;23;20054;-77
2023/12/06 03:52:17;;;;;;;22.00;7.63;;;-10.20;60.70;;;;;;6065938;23;20027;-77
2023/12/06 03:54:45;;;;;;;21.08;7.35;;;-10.30;60.70;;;;;;6065936;23;20034;-78
2023/12/06 03:57:13;;;;;;;27.40;8.50;;;-10.40;61.10;;;;;;6064520;23;20027;-77
2023/12/06 03:59:40;;;;;;;23.15;8.43;;;-10.20;61.10;;;;;;6063576;23;20034;-75
2023/12/06 04:02:08;;;;;;;35.22;8.27;;;-10.30;61.00;;;;;;6066281;23;20476;-76
2023/12/06 04:04:35;;;;;;;25.77;8.23;;;-10.30;61.00;;;;;;6064925;23;20050;-75
2023/12/06 04:07:05;;;;;;;29.35;8.25;;;-10.20;61.10;;;;;;6066679;23;20076;-75
2023/12/06 04:09:34;;;;;;;30.63;9.60;;;-10.10;61.00;;;;;;6065128;23;20034;-73
2023/12/06 04:12:02;;;;;;;27.40;11.15;;;-10.30;60.70;;;;;;6065911;23;20499;-76
2023/12/06 04:14:30;;;;;;;35.45;9.88;;;-10.40;61.00;;;;;;6064361;23;20315;-75
2023/12/06 04:16:58;;;;;;;33.17;13.60;;;-10.40;61.40;;;;;;6089303;23;20051;-75
2023/12/06 04:19:27;;;;;;;25.13;8.95;;;-10.30;61.60;;;;;;6041297;23;20023;-76
2023/12/06 04:21:55;;;;;;;21.20;9.50;;;-10.30;61.40;;;;;;6091783;23;20030;-78
2023/12/06 04:24:30;;;;;;;31.27;9.57;;;-10.30;61.40;;;;;;6073901;23;20030;-76
2023/12/06 04:26:58;;;;;;;23.35;9.40;;;-10.30;61.30;;;;;;6065537;23;20352;-76
2023/12/06 04:29:25;;;;;;;26.50;9.70;;;-10.30;61.50;;;;;;6066153;23;20034;-75
2023/12/06 04:32:28;;;;;;;30.92;10.20;;;-10.20;61.90;;;;;;6067081;23;20027;-77
2023/12/06 04:34:57;;;;;;;30.70;11.18;;;-10.20;61.80;;;;;;6068787;23;20031;-76
2023/12/06 04:37:28;;;;;;;28.52;11.02;;;-10.10;61.90;;;;;;6065513;23;20027;-78
2023/12/06 04:39:57;;;;;;;21.80;9.50;;;-10.00;61.60;;;;;;6068628;23;20349;-78
2023/12/06 04:42:25;;;;;;;29.45;10.77;;;-10.00;61.20;;;;;;6067508;23;20026;-78
2023/12/06 04:44:53;;;;;;;23.25;8.50;;;-10.10;61.50;;;;;;6068559;23;20030;-75
2023/12/06 04:47:21;;;;;;;29.10;10.98;;;-10.10;61.60;;;;;;6065244;23;20050;-76
2023/12/06 04:49:49;;;;;;;22.35;9.05;;;-10.10;61.50;;;;;;6065726;23;20043;-77
2023/12/06 04:52:19;;;;;;;26.73;10.63;;;-10.10;61.60;;;;;;6066744;23;20460;-79
2023/12/06 04:54:47;;;;;;;25.40;10.25;;;-10.10;61.60;;;;;;6069310;23;20030;-78
2023/12/06 04:57:16;;;;;;;22.80;10.90;;;-10.10;61.30;;;;;;6067498;23;20226;-78
2023/12/06 04:59:44;;;;;;;26.38;11.05;;;-10.10;61.40;;;;;;6088821;23;20962;-80
2023/12/06 05:02:12;;;;;;;24.33;9.80;;;-10.10;61.20;;;;;;6065297;23;20070;-80
2023/12/06 05:04:43;;;;;;;20.58;7.68;;;-10.20;61.50;;;;;;6067199;23;20480;-81
2023/12/06 05:07:13;;;;;;;21.67;10.98;;;-10.20;61.50;;;;;;6066836;23;20495;-79
2023/12/06 05:09:41;;;;;;;22.70;10.43;;;-10.20;61.50;;;;;;6062700;23;20030;-80
2023/12/06 05:12:09;;;;;;;33.33;10.90;;;-10.20;61.40;;;;;;6064355;23;20109;-76
2023/12/06 05:14:38;;;;;;;46.83;19.30;;;-10.30;61.30;;;;;;6061636;23;20146;-78
2023/12/06 05:17:08;;;;;;;17.27;9.35;;;-10.40;61.40;;;;;;6063258;23;20368;-77
2023/12/06 05:19:37;;;;;;;24.83;10.55;;;-10.50;61.60;;;;;;6040244;23;20048;-76
2023/12/06 05:22:05;;;;;;;28.70;10.43;;;-10.60;62.00;;;;;;6065605;23;20065;-77
2023/12/06 05:24:33;;;;;;;19.90;9.55;;;-10.80;62.50;;;;;;6066161;23;20130;-78
2023/12/06 05:27:01;;;;;;;28.92;12.00;;;-10.70;62.90;;;;;;6040052;23;20111;-77
2023/12/06 05:29:32;;;;;;;20.38;9.02;;;-10.70;63.00;;;;;;6040146;23;20026;-75
2023/12/06 05:32:02;;;;;;;20.50;9.10;;;-10.80;62.70;;;;;;6063982;23;20472;-77
2023/12/06 05:34:30;;;;;;;28.08;9.75;;;-10.90;62.60;;;;;;6064125;23;20066;-76
2023/12/06 05:36:58;;;;;;;26.25;9.30;;;-10.90;62.80;;;;;;6066860;23;20535;-76
2023/12/06 05:39:31;;;;;;;19.65;8.82;;;-10.90;62.70;;;;;;6089404;23;20098;-78
2023/12/06 05:41:59;;;;;;;22.60;9.60;;;-11.00;62.40;;;;;;6041975;23;20109;-76
2023/12/06 05:44:37;;;;;;;31.35;9.57;;;-11.10;62.50;;;;;;6066052;23;20033;-77
2023/12/06 05:47:06;;;;;;;26.80;10.38;;;-11.20;62.80;;;;;;6064355;23;20061;-77
2023/12/06 05:51:19;;;;;;;23.70;8.95;;;-11.20;63.00;;;;;;6049963;23;20027;-78
2023/12/06 05:53:50;;;;;;;10.45;4.63;;;-11.40;63.10;;;;;;6054825;23;20029;-78
2023/12/06 05:56:18;;;;;;;26.42;8.98;;;-11.40;63.10;;;;;;6064271;23;20106;-78
2023/12/06 05:58:51;;;;;;;23.52;9.00;;;-11.40;62.90;;;;;;6065408;23;20019;-79
2023/12/06 06:01:19;;;;;;;29.90;10.40;;;-11.50;62.80;;;;;;6067113;23;20026;-81
2023/12/06 06:03:48;;;;;;;27.85;12.23;;;-11.50;63.00;;;;;;6066908;23;20463;-80
2023/12/06 06:06:17;;;;;;;27.52;10.07;;;-11.40;62.90;;;;;;6065019;23;20023;-80
2023/12/06 06:08:45;;;;;;;23.27;9.43;;;-11.50;62.90;;;;;;6041799;23;20031;-81
2023/12/06 06:11:14;;;;;;;35.70;11.57;;;-11.50;62.40;;;;;;6089304;23;20117;-80
2023/12/06 06:13:42;;;;;;;26.40;9.68;;;-11.50;62.60;;;;;;6088756;23;20037;-80
2023/12/06 06:16:10;;;;;;;27.52;11.00;;;-11.60;62.60;;;;;;6068066;23;20026;-76
2023/12/06 06:18:38;;;;;;;35.50;11.55;;;-11.60;62.50;;;;;;6063782;23;20027;-77
2023/12/06 06:21:07;;;;;;;29.75;9.75;;;-11.60;62.30;;;;;;6066799;23;20046;-78
2023/12/06 06:23:36;;;;;;;34.05;12.38;;;-11.70;62.00;;;;;;6065981;23;20031;-77
2023/12/06 06:26:04;;;;;;;33.08;11.43;;;;;;;;;;6088527;23;20051;-77
2023/12/06 06:28:32;;;;;;;33.40;10.25;;;;;;;;;;6066652;23;20478;-78
2023/12/06 06:31:00;;;;;;;24.10;9.95;;;;;;;;;;6064563;23;20101;-77
2023/12/06 06:33:38;;;;;;;;;;;;;;;;;;;;;
2023/12/06 06:36:09;;;;;;;29.67;10.98;;;;;;;;;;6066627;23;20030;-78
2023/12/06 06:38:37;;;;;;;28.05;10.40;;;;;;;;;;6069116;23;20053;-79
2023/12/06 06:41:06;;;;;;;24.10;9.90;;;;;;;;;;6068126;23;20032;-77
2023/12/06 06:43:34;;;;;;;29.83;10.77;;;;;;;;;;6068267;23;20023;-79
2023/12/06 06:46:02;;;;;;;24.48;9.30;;;;;;;;;;6064614;23;20022;-79
2023/12/06 06:48:31;;;;;;;30.63;11.70;;;;;;;;;;6065525;23;20034;-79
2023/12/06 06:50:59;;;;;;;25.98;8.73;;;;;;;;;;6067771;23;20063;-77
2023/12/06 06:53:29;;;;;;;27.05;9.75;;;;;;;;;;6068437;23;20027;-78
2023/12/06 06:55:57;;;;;;;36.38;11.60;;;;;;;;;;6068686;23;20050;-77
2023/12/06 06:58:25;;;;;;;24.20;9.02;;;;;;;;;;6067639;23;20360;-78
2023/12/06 07:00:53;;;;;;;34.42;11.20;;;-11.60;94.90;;;;;;6068626;23;20037;-77
2023/12/06 07:03:22;;;;;;;29.80;10.55;;;-11.50;77.00;;;;;;6068416;23;20027;-77
2023/12/06 07:05:52;;;;;;;32.83;11.60;;;-11.40;75.70;;;;;;6068739;23;20027;-79
2023/12/06 07:08:20;;;;;;;39.60;10.73;;;-11.40;74.60;;;;;;6019727;23;20074;-78
2023/12/06 07:10:50;;;;;;;27.27;9.38;;;-11.40;74.30;;;;;;6066083;23;20452;-77
2023/12/06 07:13:18;;;;;;;27.90;12.95;;;-11.40;74.20;;;;;;6065105;23;20033;-78
2023/12/06 07:15:47;;;;;;;33.17;12.38;;;-11.50;74.20;;;;;;6040418;23;20031;-79
2023/12/06 07:18:15;;;;;;;37.78;12.18;;;-11.50;74.20;;;;;;6040972;23;20023;-81
2023/12/06 07:20:43;;;;;;;32.35;9.88;;;-11.40;74.40;;;;;;6041460;23;20027;-81
2023/12/06 07:23:10;;;;;;;40.92;12.48;;;-11.40;74.30;;;;;;6041533;23;20026;-79
2023/12/06 07:25:38;;;;;;;41.35;12.98;;;-11.40;74.30;;;;;;6064905;23;20031;-79
2023/12/06 07:28:08;;;;;;;36.03;10.77;;;-11.30;74.00;;;;;;6066901;23;20184;-79
2023/12/06 07:30:36;;;;;;;27.45;11.85;;;-11.40;74.10;;;;;;6043065;23;20069;-80
2023/12/06 07:33:03;;;;;;;38.65;11.77;;;-11.30;74.20;;;;;;6069256;23;20086;-79
2023/12/06 07:35:31;;;;;;;35.00;11.40;;;-11.20;74.00;;;;;;6041746;23;20030;-77
2023/12/06 07:38:01;;;;;;;31.90;10.65;;;-11.10;73.90;;;;;;6040550;23;20362;-78
2023/12/06 07:40:31;;;;;;;37.78;14.63;;;-11.00;73.80;;;;;;6068279;23;20078;-80
2023/12/06 07:43:00;;;;;;;35.13;13.88;;;-11.00;73.70;;;;;;6042558;23;20058;-81
2023/12/06 07:45:29;;;;;;;35.50;12.07;;;-11.00;73.70;;;;;;6041855;23;20027;-79
2023/12/06 07:47:57;;;;;;;36.33;11.75;;;-10.90;73.60;;;;;;6042337;23;20033;-78
2023/12/06 07:50:25;;;;;;;34.40;12.15;;;-11.00;73.40;;;;;;6039435;23;20478;-79
2023/12/06 07:52:53;;;;;;;34.67;11.25;;;-11.00;73.60;;;;;;6067907;23;20038;-78
2023/12/06 07:55:22;;;;;;;46.05;13.63;;;-10.90;73.90;;;;;;6085995;23;20029;-80
2023/12/06 07:57:50;;;;;;;30.65;10.88;;;-10.80;74.20;;;;;;6120973;23;20025;-80
2023/12/06 08:00:19;;;;;;;35.33;13.82;;;-10.70;73.90;;;;;;6099480;23;20554;-79
2023/12/06 08:02:49;;;;;;;30.92;12.32;;;-10.60;74.40;;;;;;6116895;23;20030;-80
2023/12/06 08:05:19;;;;;;;27.52;11.13;;;-10.60;73.50;;;;;;6100076;23;20389;-78
2023/12/06 08:07:49;;;;;;;30.98;12.65;;;-10.50;73.20;;;;;;6048113;23;20046;-81
2023/12/06 08:10:22;;;;;;;28.58;10.45;;;-10.40;73.20;;;;;;5932680;23;20032;-79
2023/12/06 08:12:51;;;;;;;28.23;10.57;;;-10.40;73.00;;;;;;5928452;24;20039;-80
2023/12/06 08:18:02;;;;;;;36.15;12.15;;;-10.40;73.10;;;;;;6023839;23;20047;-79
2023/12/06 08:26:10;;;;;;;30.30;11.52;;;-10.30;73.50;;;;;;5159094;27;20139;-81
2023/12/06 08:28:37;;;;;;;33.05;11.13;;;-10.30;73.20;;;;;;5127913;28;20422;-80
2023/12/06 08:31:05;;;;;;;37.53;13.02;;;-10.10;72.90;;;;;;5100776;28;20051;-80
2023/12/06 08:33:32;;;;;;;39.22;12.82;;;-10.20;72.70;;;;;;5127254;28;20055;-81
2023/12/06 08:35:59;;;;;;;28.13;12.55;;;-10.10;72.60;;;;;;5106160;28;20428;-81
2023/12/06 08:38:26;;;;;;;30.02;10.80;;;-10.10;72.70;;;;;;5065345;28;20499;-80
2023/12/06 08:40:53;;;;;;;30.98;10.68;;;-10.20;72.30;;;;;;4912250;28;20048;-79
2023/12/06 08:43:21;;;;;;;30.15;11.02;;;-10.00;72.40;;;;;;4870358;29;20545;-80
2023/12/06 08:45:48;;;;;;;34.22;13.13;;;-10.00;71.90;;;;;;4848083;29;20053;-81
2023/12/06 08:48:16;;;;;;;31.27;12.98;;;-10.00;72.10;;;;;;4761098;29;1705040;-80
2023/12/06 08:50:44;;;;;;;35.08;12.40;;;-9.90;72.90;;;;;;4832930;29;20073;-80
2023/12/06 08:53:13;;;;;;;33.83;12.00;;;-9.80;72.10;;;;;;4846100;29;20126;-80
2023/12/06 08:55:41;;;;;;;29.35;12.30;;;-9.80;72.10;;;;;;4820952;29;20061;-82
2023/12/06 08:58:09;;;;;;;42.05;11.93;;;-9.90;72.20;;;;;;4814850;29;20059;-80
2023/12/06 09:00:39;;;;;;;24.42;9.90;;;-9.80;72.40;;;;;;4811908;29;20094;-80
2023/12/06 09:03:07;;;;;;;35.13;8.57;;;-9.90;72.70;;;;;;4806623;29;20461;-80
2023/12/06 09:05:35;;;;;;;31.55;11.77;;;-9.90;73.30;;;;;;4886321;29;20057;-80
2023/12/06 09:08:03;;;;;;;57.10;13.23;;;-9.70;73.70;;;;;;4870301;29;20069;-79
2023/12/06 09:10:31;;;;;;;38.58;11.77;;;-9.70;73.70;;;;;;4848679;29;20144;-79
2023/12/06 09:12:59;;;;;;;35.88;9.93;;;-9.60;73.50;;;;;;4819090;29;20059;-80
2023/12/06 09:15:27;;;;;;;39.63;12.70;;;-9.60;73.30;;;;;;4789813;29;20521;-80
2023/12/06 09:26:50;;;;;;;36.83;12.20;;;-9.40;74.00;;;;;;4795512;29;20110;-80
2023/12/06 09:29:19;;;;;;;28.85;12.65;;;-9.30;73.60;;;;;;4826470;29;21892;-79
2023/12/06 09:31:47;;;;;;;35.05;12.00;;;-9.30;73.40;;;;;;4824833;29;20149;-79
2023/12/06 09:34:17;;;;;;;22.98;9.18;;;-9.30;73.70;;;;;;4819397;29;20129;-79
2023/12/06 09:36:45;;;;;;;29.08;11.40;;;-9.30;74.10;;;;;;4853875;29;20058;-79
2023/12/06 09:39:15;;;;;;;35.60;11.80;;;-9.30;73.90;;;;;;4833959;29;20061;-80
2023/12/06 09:44:28;;;;;;;32.00;13.50;;;-9.10;73.40;;;;;;4797007;29;20464;-81
2023/12/06 09:49:43;;;;;;;43.58;15.00;;;-8.80;72.40;;;;;;4776580;29;20116;-81
2023/12/06 09:52:20;;;;;;;42.47;14.68;;;-8.70;71.70;;;;;;4823105;29;20061;-81
2023/12/06 09:54:50;;;;;;;37.63;14.55;;;-8.60;71.00;;;;;;4857398;29;20053;-80
2023/12/06 09:57:19;;;;;;;44.05;15.32;;;-8.50;70.20;;;;;;4918109;29;20440;-79
2023/12/06 10:02:27;;;;;;;36.65;14.68;;;-8.80;69.30;;;;;;5170914;27;20137;-80
2023/12/06 10:04:58;;;;;;;43.78;15.45;;;-8.90;69.50;;;;;;5124511;28;20096;-80
2023/12/06 10:07:33;;;;;;;37.00;16.17;;;-8.90;69.60;;;;;;5079067;28;20047;-80
2023/12/06 10:10:01;;;;;;;44.78;15.43;;;-8.90;70.00;;;;;;5083235;28;20086;-82
2023/12/06 10:12:29;;;;;;;46.30;16.08;;;-8.90;69.90;;;;;;5096383;28;20078;-81
2023/12/06 10:14:59;;;;;;;51.80;17.60;;;-9.00;69.90;;;;;;5054480;28;20135;-78
2023/12/06 10:17:27;;;;;;;43.65;15.98;;;-8.80;70.10;;;;;;4965497;28;20070;-80
2023/12/06 10:19:56;;;;;;;42.80;16.80;;;-8.80;69.80;;;;;;4902581;28;20060;-80
2023/12/06 10:22:25;;;;;;;44.63;17.48;;;-8.80;69.70;;;;;;4915457;29;20574;-78
2023/12/06 10:24:58;;;;;;;42.83;16.85;;;-8.90;69.20;;;;;;4928813;29;20146;-80
2023/12/06 10:27:26;;;;;;;46.45;17.00;;;-9.00;69.70;;;;;;4903516;28;20047;-79
2023/12/06 10:30:17;;;;;;;48.47;16.48;;;-8.90;69.40;;;;;;4889868;28;20068;-79
2023/12/06 10:32:58;;;;;;;49.30;17.45;;;-9.00;70.40;;;;;;4731102;29;20520;-81
2023/12/06 10:35:26;;;;;;;39.67;17.52;;;-8.80;69.80;;;;;;4715500;30;20506;-79
2023/12/06 10:37:56;;;;;;;50.20;15.77;;;-8.70;69.40;;;;;;4700394;30;20061;-78
2023/12/06 10:43:23;;;;;;;37.13;16.70;;;-8.60;69.70;;;;;;4680310;30;20749;-78
2023/12/06 10:51:18;;;;;;;;;;;-8.40;68.00;;;;;;4634863;30;20058;-78
2023/12/06 10:53:48;;;;;;;38.83;15.15;;;-8.70;68.10;;;;;;4682786;30;20392;-77
2023/12/06 10:56:17;;;;;;;41.42;14.68;;;-8.90;68.80;;;;;;4738270;30;20067;-77
2023/12/06 11:06:59;;;;;;;36.03;14.55;;;-9.40;70.20;;;;;;5089544;27;20393;-80
2023/12/06 11:09:39;;;;;;;38.95;14.60;;;-9.30;70.60;;;;;;5067952;28;20048;-80
2023/12/06 11:12:21;;;;;;;38.75;15.95;;;-9.40;70.70;;;;;;5069214;28;20067;-81
2023/12/06 11:15:10;;;;;;;42.72;14.52;;;-9.50;70.80;;;;;;5065716;28;20063;-80
2023/12/06 11:17:48;;;;;;;32.17;13.95;;;-9.60;71.10;;;;;;5069456;28;20059;-79
2023/12/06 11:20:16;;;;;;;41.88;15.23;;;-9.70;71.60;;;;;;5068866;28;20056;-79
2023/12/06 11:22:45;;;;;;;30.60;12.73;;;-9.50;72.10;;;;;;5067939;28;20487;-79
2023/12/06 11:25:15;;;;;;;43.50;16.23;;;-9.60;72.10;;;;;;5069289;28;20438;-79
2023/12/06 11:27:43;;;;;;;31.05;13.85;;;-9.50;72.10;;;;;;5064272;28;20048;-80
2023/12/06 11:30:17;;;;;;;31.40;13.80;;;-9.60;72.00;;;;;;5048826;28;20080;-81
2023/12/06 11:32:46;;;;;;;32.45;14.02;;;-9.70;72.10;;;;;;5039776;28;20564;-80
2023/12/06 11:35:14;;;;;;;34.15;13.07;;;-9.70;72.40;;;;;;5057221;28;20519;-80
2023/12/06 11:37:54;;;;;;;31.98;13.18;;;-9.90;72.40;;;;;;5055554;28;20045;-81
2023/12/06 11:40:27;;;;;;;41.10;14.00;;;-9.90;72.70;;;;;;5057051;28;20048;-81
2023/12/06 11:42:57;;;;;;;37.78;14.48;;;-9.90;72.90;;;;;;5041451;28;20084;-82
2023/12/06 11:45:27;;;;;;;42.60;15.00;;;-10.00;72.90;;;;;;5054137;28;20067;-80
2023/12/06 11:47:55;;;;;;;41.42;13.88;;;-10.00;72.60;;;;;;5061525;28;20064;-80
2023/12/06 11:50:23;;;;;;;45.03;15.73;;;-9.90;72.50;;;;;;5067791;28;20056;-79
2023/12/06 11:52:54;;;;;;;39.25;15.10;;;-9.70;72.30;;;;;;5066908;28;20041;-80
2023/12/06 11:55:25;;;;;;;48.25;15.85;;;-9.60;71.90;;;;;;5066657;28;20159;-80
2023/12/06 11:58:03;;;;;;;34.08;14.57;;;-9.70;71.90;;;;;;5048887;28;20397;-81
2023/12/06 12:00:31;;;;;;;44.22;15.18;;;-9.80;72.50;;;;;;5062378;28;20532;-81
2023/12/06 12:03:00;;;;;;;44.90;15.90;;;-9.80;72.60;;;;;;5065518;28;20423;-82
2023/12/06 12:05:38;;;;;;;49.20;17.83;;;-9.90;72.80;;;;;;5053608;28;20594;-82
2023/12/06 12:08:08;;;;;;;54.58;17.63;;;-10.10;72.90;;;;;;5063824;28;20045;-82
2023/12/06 12:10:37;;;;;;;44.70;16.17;;;-10.10;73.60;;;;;;5066525;28;20508;-81
2023/12/06 12:13:05;;;;;;;48.40;17.52;;;-10.10;73.70;;;;;;5066268;28;20124;-80
2023/12/06 12:15:33;;;;;;;41.78;16.23;;;-10.10;73.70;;;;;;5064328;28;20528;-81
2023/12/06 12:18:02;;;;;;;48.67;17.70;;;-10.10;73.80;;;;;;5053091;28;20049;-80
2023/12/06 12:20:37;;;;;;;44.53;14.77;;;-10.10;73.80;;;;;;5053294;28;20056;-79
2023/12/06 12:23:07;;;;;;;54.28;17.33;;;-10.10;73.80;;;;;;5037146;28;20148;-80
2023/12/06 12:25:35;;;;;;;46.10;16.90;;;-10.00;73.90;;;;;;5033246;28;20056;-80
2023/12/06 12:28:02;;;;;;;56.30;18.17;;;-9.90;73.80;;;;;;5016240;28;20045;-80
2023/12/06 12:30:36;;;;;;;50.25;15.90;;;-10.10;73.70;;;;;;5034057;28;20049;-79
2023/12/06 12:33:05;;;;;;;56.22;17.52;;;-10.10;73.90;;;;;;5034084;28;20080;-79
2023/12/06 12:35:33;;;;;;;44.17;16.10;;;-10.20;73.90;;;;;;5035685;28;20053;-81
2023/12/06 12:38:01;;;;;;;46.22;15.73;;;-10.30;74.00;;;;;;5033726;28;20045;-79
2023/12/06 12:40:30;;;;;;;57.92;18.15;;;-10.50;74.30;;;;;;5034731;28;20047;-80
2023/12/06 12:42:58;;;;;;;46.28;15.98;;;-10.50;75.60;;;;;;5036176;28;20592;-79
2023/12/06 12:45:27;;;;;;;44.17;16.35;;;-10.60;75.40;;;;;;5047607;28;20053;-79
2023/12/06 12:47:56;;;;;;;41.85;15.60;;;-10.50;75.50;;;;;;5039126;28;20049;-78
2023/12/06 12:50:25;;;;;;;43.05;14.60;;;-10.50;75.30;;;;;;5041048;28;20045;-79
2023/12/06 12:52:55;;;;;;;47.13;17.42;;;-10.60;75.00;;;;;;5040333;28;20098;-79
2023/12/06 12:55:23;;;;;;;44.63;15.73;;;-10.70;75.30;;;;;;5025904;28;20045;-79
2023/12/06 12:57:53;;;;;;;43.60;14.60;;;-10.60;75.40;;;;;;5042251;28;20041;-78
2023/12/06 13:00:24;;;;;;;52.92;16.95;;;-10.70;75.70;;;;;;5043264;28;20596;-79
2023/12/06 13:02:53;;;;;;;53.63;17.08;;;-10.80;75.80;;;;;;5042218;28;20042;-79
2023/12/06 13:05:23;;;;;;;54.63;17.15;;;-10.80;76.30;;;;;;5041813;28;20118;-81
2023/12/06 13:07:55;;;;;;;45.13;16.20;;;-10.80;76.40;;;;;;5036242;28;20051;-79
2023/12/06 13:10:29;;;;;;;45.58;15.13;;;-10.80;76.80;;;;;;5032582;28;20053;-79
2023/12/06 13:12:59;;;;;;;44.28;16.02;;;-10.80;76.40;;;;;;5031760;28;20052;-80
2023/12/06 13:15:27;;;;;;;50.00;16.42;;;-10.90;76.90;;;;;;5020753;28;20053;-79
2023/12/06 13:17:55;;;;;;;46.78;17.50;;;-10.70;77.10;;;;;;5044614;28;20037;-79
2023/12/06 13:20:23;;;;;;;46.33;15.32;;;-10.90;77.30;;;;;;5039971;28;20415;-79
2023/12/06 13:22:51;;;;;;;61.33;18.98;;;-10.90;77.30;;;;;;5051914;28;20069;-78
2023/12/06 13:25:22;;;;;;;48.40;15.40;;;-10.80;77.20;;;;;;5050934;28;20076;-79